createdAt,value
2018-11-29T00:02:04.822Z,90.05
2018-11-29T00:04:39.486Z,89.99
2018-11-29T00:07:14.612Z,89.77
2018-11-29T00:09:49.316Z,90.02
2018-11-29T00:12:23.844Z,90.11
2018-11-29T00:14:58.678Z,90.50
2018-11-29T00:17:33.150Z,91.38
2018-11-29T00:20:10.893Z,91.19
2018-11-29T00:22:46.654Z,90.72
2018-11-29T00:25:21.814Z,91.26
2018-11-29T00:27:56.414Z,90.95
2018-11-29T00:30:31.410Z,90.43
2018-11-29T00:33:08.796Z,90.07
2018-11-29T00:35:43.235Z,90.23
2018-11-29T00:38:17.779Z,90.10
2018-11-29T00:40:52.288Z,90.46
2018-11-29T00:43:26.744Z,89.69
2018-11-29T00:46:01.703Z,89.03
2018-11-29T00:48:36.215Z,88.80
2018-11-29T00:51:10.819Z,88.67
2018-11-29T00:53:45.226Z,88.99
2018-11-29T00:56:19.745Z,89.81
2018-11-29T00:58:54.686Z,89.85
2018-11-29T01:01:29.131Z,89.65
2018-11-29T01:04:16.104Z,90.39
2018-11-29T01:06:51.169Z,91.13
2018-11-29T01:09:25.792Z,91.16
2018-11-29T01:12:00.681Z,90.89
2018-11-29T01:14:35.033Z,90.86
2018-11-29T01:17:09.792Z,90.55
2018-11-29T01:19:44.590Z,90.29
2018-11-29T01:22:19.368Z,90.21
2018-11-29T01:24:53.790Z,89.46
2018-11-29T01:27:28.611Z,88.77
2018-11-29T01:30:03.318Z,88.74
2018-11-29T01:32:38.405Z,88.24
2018-11-29T01:35:15.082Z,88.23
2018-11-29T01:37:50.392Z,87.94
2018-11-29T01:40:25.367Z,87.35
2018-11-29T01:43:00.180Z,88.02
2018-11-29T01:45:43.579Z,89.21
2018-11-29T01:48:18.123Z,90.00
2018-11-29T01:50:52.640Z,90.34
2018-11-29T01:53:31.990Z,90.30
2018-11-29T01:56:07.487Z,90.01
2018-11-29T01:58:42.400Z,89.70
2018-11-29T02:01:17.596Z,89.67
2018-11-29T02:03:52.207Z,89.26
2018-11-29T02:06:27.195Z,88.73
2018-11-29T02:09:01.554Z,88.93
2018-11-29T02:11:35.990Z,88.93
2018-11-29T02:14:10.963Z,89.09
2018-11-29T02:16:45.655Z,89.14
2018-11-29T02:19:20.419Z,89.12
2018-11-29T02:21:54.819Z,88.93
2018-11-29T02:24:29.815Z,88.89
2018-11-29T02:27:04.431Z,89.36
2018-11-29T02:29:39.259Z,89.91
2018-11-29T02:32:13.738Z,89.61
2018-11-29T02:34:48.411Z,90.35
2018-11-29T02:37:22.926Z,90.29
2018-11-29T02:39:57.576Z,89.70
2018-11-29T02:42:32.352Z,89.06
2018-11-29T02:45:09.482Z,88.84
2018-11-29T02:47:43.868Z,88.16
2018-11-29T02:50:19.587Z,87.57
2018-11-29T02:52:54.031Z,88.41
2018-11-29T02:55:28.909Z,88.33
2018-11-29T02:58:04.608Z,88.80
2018-11-29T03:00:39.748Z,89.53
2018-11-29T03:03:37.290Z,89.61
2018-11-29T03:06:11.915Z,89.49
2018-11-29T03:08:46.479Z,89.53
2018-11-29T03:11:20.921Z,90.08
2018-11-29T03:13:55.668Z,89.96
2018-11-29T03:16:30.036Z,90.66
2018-11-29T03:19:04.800Z,90.22
2018-11-29T03:21:39.490Z,91.01
2018-11-29T03:24:14.422Z,91.11
2018-11-29T03:26:49.158Z,90.57
2018-11-29T03:29:23.582Z,89.83
2018-11-29T03:31:58.323Z,90.12
2018-11-29T03:34:33.335Z,91.18
2018-11-29T03:37:08.524Z,90.80
2018-11-29T03:39:44.126Z,91.01
2018-11-29T03:42:19.732Z,90.19
2018-11-29T03:44:54.519Z,89.09
2018-11-29T03:47:29.024Z,88.91
2018-11-29T03:50:03.873Z,89.50
2018-11-29T03:52:38.223Z,90.06
2018-11-29T03:55:13.111Z,90.31
2018-11-29T03:57:47.759Z,89.68
2018-11-29T04:00:22.975Z,89.43
2018-11-29T04:02:57.584Z,89.54
2018-11-29T04:05:32.063Z,89.70
2018-11-29T04:08:07.041Z,89.91
2018-11-29T04:10:41.938Z,89.05
2018-11-29T04:13:16.923Z,88.43
2018-11-29T04:15:51.866Z,88.06
2018-11-29T04:18:26.302Z,88.03
2018-11-29T04:21:00.976Z,88.69
2018-11-29T04:23:35.495Z,88.29
2018-11-29T04:26:10.407Z,89.49
2018-11-29T04:28:44.835Z,89.17
2018-11-29T04:31:19.622Z,89.18
2018-11-29T04:33:54.356Z,88.99
2018-11-29T04:36:29.220Z,89.14
2018-11-29T04:39:04.313Z,88.82
2018-11-29T04:41:38.895Z,88.16
2018-11-29T04:44:14.028Z,87.79
2018-11-29T04:46:49.496Z,87.04
2018-11-29T04:49:23.787Z,87.04
2018-11-29T04:51:58.110Z,86.88
2018-11-29T04:54:32.449Z,86.31
2018-11-29T04:57:06.899Z,86.52
2018-11-29T04:59:42.135Z,86.14
2018-11-29T05:02:17.375Z,85.80
2018-11-29T05:04:52.132Z,86.95
2018-11-29T05:07:26.775Z,87.71
2018-11-29T05:10:01.401Z,87.49
2018-11-29T05:12:36.591Z,88.20
2018-11-29T05:15:12.263Z,88.27
2018-11-29T05:17:46.613Z,87.61
2018-11-29T05:20:21.296Z,87.38
2018-11-29T05:22:55.850Z,87.36
2018-11-29T05:25:30.380Z,87.52
2018-11-29T05:28:05.479Z,87.68
2018-11-29T05:30:40.315Z,86.89
2018-11-29T05:33:14.719Z,87.92
2018-11-29T05:35:49.035Z,88.39
2018-11-29T05:38:23.951Z,88.10
2018-11-29T05:40:58.982Z,87.71
2018-11-29T05:43:33.422Z,87.35
2018-11-29T05:46:08.360Z,86.67
2018-11-29T05:48:43.170Z,86.63
2018-11-29T05:51:17.462Z,86.40
2018-11-29T05:53:51.963Z,86.63
2018-11-29T05:56:26.713Z,86.84
2018-11-29T05:59:01.088Z,86.80
2018-11-29T06:01:44.069Z,86.77
2018-11-29T06:04:18.669Z,86.78
2018-11-29T06:06:53.031Z,86.51
2018-11-29T06:09:27.600Z,86.50
2018-11-29T06:12:02.667Z,86.58
2018-11-29T06:14:37.274Z,86.60
2018-11-29T06:17:11.640Z,86.89
2018-11-29T06:19:46.251Z,86.91
2018-11-29T06:22:20.860Z,87.08
2018-11-29T06:24:55.282Z,87.48
2018-11-29T06:27:29.790Z,87.71
2018-11-29T06:30:04.788Z,87.98
2018-11-29T06:32:39.363Z,88.74
2018-11-29T06:35:14.195Z,88.68
2018-11-29T06:37:48.571Z,88.79
2018-11-29T06:40:23.002Z,89.04
2018-11-29T06:42:57.922Z,89.46
2018-11-29T06:45:33.314Z,89.22
2018-11-29T06:48:07.916Z,88.40
2018-11-29T06:50:42.321Z,88.40
2018-11-29T06:53:23.205Z,87.84
2018-11-29T06:55:58.943Z,88.18
2018-11-29T06:58:33.300Z,87.16
2018-11-29T07:01:07.781Z,87.22
2018-11-29T07:03:43.330Z,86.64
2018-11-29T07:06:17.168Z,87.11
2018-11-29T07:08:51.535Z,87.81
2018-11-29T07:11:26.222Z,88.19
2018-11-29T07:14:00.758Z,88.86
2018-11-29T07:16:35.454Z,88.63
2018-11-29T07:19:14.905Z,88.14
2018-11-29T07:21:59.609Z,87.41
2018-11-29T07:24:34.311Z,87.66
2018-11-29T07:27:09.023Z,87.88
2018-11-29T07:29:44.060Z,87.76
2018-11-29T07:32:22.891Z,86.69
2018-11-29T07:34:57.196Z,87.35
2018-11-29T07:37:31.975Z,87.15
2018-11-29T07:40:10.286Z,87.74
2018-11-29T07:42:45.794Z,87.41
2018-11-29T07:45:20.837Z,86.89
2018-11-29T07:47:55.338Z,86.70
2018-11-29T07:50:29.666Z,86.65
2018-11-29T07:53:04.630Z,86.46
2018-11-29T07:55:39.584Z,87.02
2018-11-29T07:58:14.654Z,86.10
2018-11-29T08:00:49.042Z,85.38
2018-11-29T08:03:23.399Z,85.78
2018-11-29T08:05:57.843Z,85.96
2018-11-29T08:08:32.737Z,85.92
2018-11-29T08:11:11.473Z,85.54
2018-11-29T08:13:46.003Z,86.24
2018-11-29T08:16:20.687Z,86.64
2018-11-29T08:18:55.032Z,86.88
2018-11-29T08:21:29.910Z,86.18
2018-11-29T08:24:04.312Z,86.39
2018-11-29T08:26:38.687Z,86.46
2018-11-29T08:29:13.502Z,86.72
2018-11-29T08:31:47.918Z,86.62
2018-11-29T08:34:22.243Z,86.10
2018-11-29T08:36:56.990Z,85.45
2018-11-29T08:39:31.426Z,85.09
2018-11-29T08:42:06.322Z,84.68
2018-11-29T08:44:41.095Z,84.37
2018-11-29T08:47:15.391Z,83.50
2018-11-29T08:50:01.083Z,83.18
2018-11-29T08:52:36.549Z,82.09
2018-11-29T08:55:14.780Z,82.10
2018-11-29T08:57:50.192Z,81.19
2018-11-29T09:00:24.962Z,81.11
2018-11-29T09:02:59.604Z,80.59
2018-11-29T09:05:34.216Z,79.95
2018-11-29T09:08:08.855Z,80.26
2018-11-29T09:10:43.560Z,79.58
2018-11-29T09:13:18.039Z,79.40
2018-11-29T09:15:52.801Z,79.28
2018-11-29T09:18:27.228Z,79.52
2018-11-29T09:21:01.966Z,79.46
2018-11-29T09:23:36.822Z,78.18
2018-11-29T09:26:11.320Z,78.80
2018-11-29T09:28:46.439Z,78.86
2018-11-29T09:31:21.482Z,78.33
2018-11-29T09:33:56.091Z,78.63
2018-11-29T09:36:30.470Z,80.07
2018-11-29T09:39:08.717Z,80.31
2018-11-29T09:41:43.627Z,79.36
2018-11-29T09:44:18.226Z,79.69
2018-11-29T09:46:52.837Z,79.77
2018-11-29T09:49:27.671Z,79.77
2018-11-29T09:52:02.543Z,81.17
2018-11-29T09:54:37.078Z,80.41
2018-11-29T09:57:11.374Z,79.64
2018-11-29T09:59:46.260Z,80.03
2018-11-29T10:02:21.076Z,79.18
2018-11-29T10:04:55.356Z,78.23
2018-11-29T10:07:30.347Z,78.08
2018-11-29T10:10:06.401Z,77.96
2018-11-29T10:12:41.681Z,78.37
2018-11-29T10:15:16.673Z,79.19
2018-11-29T10:17:51.687Z,78.09
2018-11-29T10:20:26.389Z,77.66
2018-11-29T10:23:01.179Z,78.93
2018-11-29T10:25:36.587Z,78.13
2018-11-29T10:28:12.775Z,78.02
2018-11-29T10:30:52.994Z,77.69
2018-11-29T10:33:27.842Z,77.76
2018-11-29T10:36:02.715Z,77.47
2018-11-29T10:38:37.243Z,77.08
2018-11-29T10:41:12.910Z,76.93
2018-11-29T10:43:46.779Z,76.65
2018-11-29T10:46:21.131Z,76.68
2018-11-29T10:48:55.948Z,76.96
2018-11-29T10:51:30.235Z,76.58
2018-11-29T10:54:05.062Z,76.86
2018-11-29T10:56:39.612Z,76.58
2018-11-29T10:59:14.363Z,77.22
2018-11-29T11:01:54.387Z,77.01
2018-11-29T11:04:28.943Z,76.61
2018-11-29T11:07:03.280Z,76.52
2018-11-29T11:09:37.788Z,75.98
2018-11-29T11:12:12.533Z,75.74
2018-11-29T11:14:47.313Z,75.63
2018-11-29T11:17:23.300Z,76.00
2018-11-29T11:19:58.179Z,76.73
2018-11-29T11:22:32.734Z,76.07
2018-11-29T11:25:09.831Z,76.16
2018-11-29T11:27:44.283Z,75.73
2018-11-29T11:30:20.667Z,76.04
2018-11-29T11:32:59.418Z,75.67
2018-11-29T11:35:42.037Z,75.66
2018-11-29T11:38:16.431Z,75.00
2018-11-29T11:40:50.995Z,75.27
2018-11-29T11:43:25.888Z,74.88
2018-11-29T11:46:00.394Z,75.51
2018-11-29T11:48:34.823Z,75.29
2018-11-29T11:51:09.698Z,75.41
2018-11-29T11:53:45.221Z,75.34
2018-11-29T11:56:20.256Z,75.37
2018-11-29T11:58:56.304Z,75.90
2018-11-29T12:01:31.432Z,76.30
2018-11-29T12:04:06.891Z,76.78
2018-11-29T12:06:41.447Z,76.39
2018-11-29T12:09:16.352Z,76.26
2018-11-29T12:11:52.998Z,76.38
2018-11-29T12:14:27.479Z,76.28
2018-11-29T12:17:01.953Z,76.46
2018-11-29T12:19:36.820Z,76.44
2018-11-29T12:22:11.635Z,76.26
2018-11-29T12:24:46.565Z,76.24
2018-11-29T12:27:21.086Z,75.57
2018-11-29T12:29:55.942Z,74.41
2018-11-29T12:32:30.234Z,74.29
2018-11-29T12:35:05.131Z,74.60
2018-11-29T12:37:39.914Z,74.45
2018-11-29T12:40:15.413Z,73.73
2018-11-29T12:42:50.593Z,74.24
2018-11-29T12:45:24.912Z,74.89
2018-11-29T12:47:59.550Z,75.23
2018-11-29T12:50:41.113Z,73.89
2018-11-29T12:53:15.475Z,73.81
2018-11-29T12:55:49.911Z,74.19
2018-11-29T12:58:24.236Z,73.87
2018-11-29T13:00:58.750Z,73.57
2018-11-29T13:03:33.428Z,73.84
2018-11-29T13:06:08.039Z,74.31
2018-11-29T13:08:42.550Z,74.19
2018-11-29T13:11:17.742Z,76.09
2018-11-29T13:13:52.773Z,75.89
2018-11-29T13:16:27.401Z,75.35
2018-11-29T13:19:02.191Z,75.62
2018-11-29T13:21:36.799Z,75.05
2018-11-29T13:24:11.192Z,75.81
2018-11-29T13:26:45.719Z,76.24
2018-11-29T13:29:20.228Z,76.48
2018-11-29T13:31:55.170Z,78.42
2018-11-29T13:34:29.985Z,77.92
2018-11-29T13:37:04.964Z,77.83
2018-11-29T13:39:39.738Z,77.33
2018-11-29T13:42:14.183Z,75.63
2018-11-29T13:44:48.659Z,75.51
2018-11-29T13:47:23.503Z,76.09
2018-11-29T13:49:58.128Z,76.75
2018-11-29T13:52:32.899Z,77.50
2018-11-29T13:55:08.689Z,77.62
2018-11-29T13:57:45.111Z,77.68
2018-11-29T14:00:21.953Z,78.04
2018-11-29T14:03:01.582Z,78.84
2018-11-29T14:05:36.775Z,79.63
2018-11-29T14:08:11.458Z,79.92
2018-11-29T14:10:51.391Z,79.79
2018-11-29T14:13:26.008Z,79.98
2018-11-29T14:16:00.763Z,78.87
2018-11-29T14:18:35.259Z,78.96
2018-11-29T14:21:09.855Z,79.42
2018-11-29T14:23:44.321Z,80.41
2018-11-29T14:26:18.747Z,79.72
2018-11-29T14:28:53.535Z,80.00
2018-11-29T14:31:28.486Z,80.74
2018-11-29T14:34:03.079Z,80.68
2018-11-29T14:36:37.676Z,81.39
2018-11-29T14:39:12.637Z,81.88
2018-11-29T14:41:47.270Z,81.82
2018-11-29T14:44:21.811Z,81.50
2018-11-29T14:46:56.436Z,82.14
2018-11-29T14:49:30.755Z,82.89
2018-11-29T14:52:06.000Z,82.67
2018-11-29T14:54:40.531Z,81.75
2018-11-29T14:57:15.471Z,81.54
2018-11-29T14:59:50.292Z,82.71
2018-11-29T15:02:24.788Z,81.64
2018-11-29T15:04:59.311Z,82.17
2018-11-29T15:07:34.206Z,82.50
2018-11-29T15:10:10.337Z,82.48
2018-11-29T15:12:45.310Z,82.29
2018-11-29T15:15:19.840Z,83.34
2018-11-29T15:17:54.832Z,82.91
2018-11-29T15:20:33.799Z,82.78
2018-11-29T15:23:09.614Z,82.38
2018-11-29T15:25:44.746Z,81.96
2018-11-29T15:28:19.515Z,82.28
2018-11-29T15:30:54.055Z,81.92
2018-11-29T15:33:28.803Z,82.22
2018-11-29T15:36:04.050Z,82.20
2018-11-29T15:38:38.406Z,82.36
2018-11-29T15:41:18.051Z,82.31
2018-11-29T15:43:47.606Z,83.16
2018-11-29T15:46:22.145Z,82.75
2018-11-29T15:48:56.600Z,82.94
2018-11-29T15:51:31.419Z,82.64
2018-11-29T15:54:07.095Z,82.62
2018-11-29T15:56:41.823Z,82.52
2018-11-29T15:59:16.286Z,83.09
2018-11-29T16:01:51.151Z,83.47
2018-11-29T16:04:25.875Z,83.51
2018-11-29T16:07:00.745Z,83.24
2018-11-29T16:09:35.136Z,83.14
2018-11-29T16:12:09.512Z,83.22
2018-11-29T16:14:44.325Z,83.05
2018-11-29T16:17:19.225Z,83.64
2018-11-29T16:19:53.754Z,83.40
2018-11-29T16:22:28.623Z,83.96
2018-11-29T16:25:03.813Z,84.08
2018-11-29T16:27:38.090Z,83.68
2018-11-29T16:30:33.902Z,84.93
2018-11-29T16:33:25.936Z,84.30
2018-11-29T16:36:00.721Z,83.60
2018-11-29T16:38:35.370Z,83.47
2018-11-29T16:41:10.197Z,83.50
2018-11-29T16:43:44.959Z,83.08
2018-11-29T16:46:19.522Z,83.53
2018-11-29T16:48:54.335Z,84.43
2018-11-29T16:51:29.219Z,83.99
2018-11-29T16:54:03.628Z,84.52
2018-11-29T16:56:38.071Z,83.99
2018-11-29T16:59:12.499Z,83.97
2018-11-29T17:01:46.811Z,83.71
2018-11-29T17:04:21.135Z,84.13
2018-11-29T17:06:56.336Z,83.77
2018-11-29T17:09:30.957Z,84.37
2018-11-29T17:12:06.211Z,84.18
2018-11-29T17:14:40.846Z,85.17
2018-11-29T17:17:15.323Z,85.17
2018-11-29T17:19:49.826Z,85.80
2018-11-29T17:22:24.307Z,86.15
2018-11-29T17:24:58.884Z,86.48
2018-11-29T17:27:33.558Z,86.10
2018-11-29T17:30:17.870Z,86.03
2018-11-29T17:32:56.606Z,85.38
2018-11-29T17:35:31.262Z,85.38
2018-11-29T17:38:05.950Z,85.40
2018-11-29T17:40:40.410Z,84.69
2018-11-29T17:43:14.904Z,84.27
2018-11-29T17:45:49.584Z,84.19
2018-11-29T17:48:24.334Z,83.94
2018-11-29T17:50:59.131Z,83.85
2018-11-29T17:53:33.677Z,84.33
2018-11-29T17:56:08.496Z,83.88
2018-11-29T17:58:43.314Z,83.90
2018-11-29T18:01:18.050Z,84.17
2018-11-29T18:03:52.570Z,83.85
2018-11-29T18:06:26.976Z,84.44
2018-11-29T18:09:01.460Z,84.50
2018-11-29T18:11:35.814Z,84.84
2018-11-29T18:14:10.250Z,85.49
2018-11-29T18:16:44.678Z,85.28
2018-11-29T18:19:19.399Z,84.71
2018-11-29T18:21:53.988Z,83.81
2018-11-29T18:24:28.175Z,84.57
2018-11-29T18:27:02.462Z,85.15
2018-11-29T18:29:36.915Z,86.14
2018-11-29T18:32:11.374Z,86.35
2018-11-29T18:34:45.806Z,85.36
2018-11-29T18:37:20.266Z,86.20
2018-11-29T18:39:54.595Z,85.88
2018-11-29T18:42:29.259Z,86.67
2018-11-29T18:45:05.143Z,87.00
2018-11-29T18:47:39.765Z,85.88
2018-11-29T18:50:16.783Z,86.71
2018-11-29T18:52:51.628Z,85.87
2018-11-29T18:55:27.354Z,84.83
2018-11-29T18:58:02.119Z,84.93
2018-11-29T19:00:37.573Z,85.26
2018-11-29T19:03:12.267Z,85.50
2018-11-29T19:05:46.571Z,85.33
2018-11-29T19:08:21.408Z,85.47
2018-11-29T19:10:55.885Z,84.80
2018-11-29T19:13:30.648Z,84.49
2018-11-29T19:16:06.369Z,85.20
2018-11-29T19:18:40.924Z,84.71
2018-11-29T19:21:15.425Z,84.70
2018-11-29T19:23:50.618Z,84.72
2018-11-29T19:26:25.234Z,84.53
2018-11-29T19:28:59.915Z,84.81
2018-11-29T19:31:34.479Z,84.71
2018-11-29T19:34:09.635Z,85.24
2018-11-29T19:36:44.428Z,85.15
2018-11-29T19:39:18.971Z,84.95
2018-11-29T19:41:53.519Z,84.67
2018-11-29T19:44:27.795Z,84.77
2018-11-29T19:47:02.220Z,84.45
2018-11-29T19:49:36.838Z,84.50
2018-11-29T19:52:11.511Z,84.72
2018-11-29T19:54:46.115Z,85.02
2018-11-29T19:57:20.739Z,84.08
2018-11-29T19:59:55.827Z,84.47
2018-11-29T20:02:30.575Z,85.06
2018-11-29T20:05:05.708Z,85.16
2018-11-29T20:07:40.195Z,84.66
2018-11-29T20:10:18.619Z,84.36
2018-11-29T20:12:59.957Z,84.09
2018-11-29T20:15:36.150Z,84.61
2018-11-29T20:18:11.743Z,84.53
2018-11-29T20:20:46.665Z,84.38
2018-11-29T20:23:21.118Z,83.99
2018-11-29T20:25:55.672Z,84.52
2018-11-29T20:28:30.552Z,84.02
2018-11-29T20:31:06.108Z,83.57
2018-11-29T20:33:40.643Z,83.51
2018-11-29T20:36:15.274Z,83.49
2018-11-29T20:38:49.735Z,83.61
2018-11-29T20:41:24.835Z,84.00
2018-11-29T20:43:59.614Z,84.10
2018-11-29T20:46:34.673Z,83.84
2018-11-29T20:49:09.589Z,83.64
2018-11-29T20:51:44.520Z,84.04
2018-11-29T20:54:18.998Z,84.09
2018-11-29T20:56:53.692Z,84.43
2018-11-29T20:59:28.226Z,84.91
2018-11-29T21:02:02.819Z,84.43
2018-11-29T21:04:37.285Z,84.74
2018-11-29T21:07:11.567Z,85.26
2018-11-29T21:09:46.027Z,85.38
2018-11-29T21:12:20.628Z,84.87
2018-11-29T21:14:55.610Z,84.16
2018-11-29T21:17:30.859Z,83.93
2018-11-29T21:20:08.593Z,84.21
2018-11-29T21:22:45.003Z,84.07
2018-11-29T21:25:24.091Z,84.26
2018-11-29T21:27:58.830Z,83.66
2018-11-29T21:30:33.617Z,83.47
2018-11-29T21:33:09.137Z,84.12
2018-11-29T21:35:44.016Z,84.38
2018-11-29T21:38:21.066Z,83.80
2018-11-29T21:41:00.875Z,84.36
2018-11-29T21:43:35.426Z,84.59
2018-11-29T21:46:10.427Z,83.78
2018-11-29T21:48:45.151Z,84.48
2018-11-29T21:51:19.626Z,84.01
2018-11-29T21:53:54.471Z,84.71
2018-11-29T21:56:29.380Z,84.01
2018-11-29T21:59:03.838Z,84.33
2018-11-29T22:01:38.844Z,84.90
2018-11-29T22:04:13.238Z,85.29
2018-11-29T22:06:48.107Z,84.87
2018-11-29T22:09:22.348Z,83.58
2018-11-29T22:11:56.786Z,84.51
2018-11-29T22:14:31.671Z,83.93
2018-11-29T22:17:06.000Z,84.44
2018-11-29T22:19:40.500Z,84.92
2018-11-29T22:22:15.586Z,85.64
2018-11-29T22:24:49.954Z,86.49
2018-11-29T22:27:25.160Z,86.25
2018-11-29T22:29:59.523Z,86.17
2018-11-29T22:32:34.291Z,85.17
2018-11-29T22:35:09.333Z,85.74
2018-11-29T22:37:44.067Z,85.37
2018-11-29T22:40:19.329Z,85.02
2018-11-29T22:42:54.130Z,85.77
2018-11-29T22:45:29.144Z,86.36
2018-11-29T22:48:04.530Z,86.37
2018-11-29T22:50:39.516Z,86.40
2018-11-29T22:53:13.974Z,86.61
2018-11-29T22:55:48.544Z,86.39
2018-11-29T22:58:23.223Z,85.64
2018-11-29T23:00:57.672Z,85.96
2018-11-29T23:03:32.331Z,84.98
2018-11-29T23:06:07.195Z,85.39
2018-11-29T23:08:41.651Z,85.13
2018-11-29T23:11:16.271Z,85.16
2018-11-29T23:13:51.063Z,85.43
2018-11-29T23:16:25.552Z,85.11
2018-11-29T23:19:00.374Z,85.49
2018-11-29T23:21:34.911Z,84.84
2018-11-29T23:24:09.459Z,85.14
2018-11-29T23:26:43.809Z,84.54
2018-11-29T23:29:18.268Z,85.43
2018-11-29T23:31:53.600Z,84.93
2018-11-29T23:34:28.422Z,84.95
2018-11-29T23:37:03.038Z,85.53
2018-11-29T23:39:37.441Z,85.29
2018-11-29T23:42:11.745Z,84.75
2018-11-29T23:44:46.499Z,84.84
2018-11-29T23:47:21.159Z,84.81
2018-11-29T23:49:56.222Z,84.46
2018-11-29T23:52:30.798Z,84.60
2018-11-29T23:55:06.890Z,84.73
2018-11-29T23:57:41.295Z,85.68
